Latest Weather Observations for Melville Water

IDW60901

Issued at 7:11 am WST Thursday 1 October 2020 (issued every 10 minutes, with the page automatically refreshed every 10 minutes)

About weather observations | Map of Perth area stations | Latest observations for Perth area | Other Formats
Station Details ID: 009091 Name: INNER DOLPHIN PYLON Lat: -31.99 Lon: 115.83 Height: 0.0 m
Data from the previous 72 hours. | See also: Recent months at Melville Water
Date/Time
WST
Temp
°C
App
Temp
°C
Dew
Point
°C
Rel
Hum
%
Delta-T
°C
Wind Press
QNH
hPa
Press
MSL
hPa
Rain since
9am
mm
Dir  Spd
km/h
Gust
km/h
Spd
kts
Gust
kts
01/07:00am - - - - - WSW 17 22 9 12 - - -
01/06:30am - - - - - W 11 17 6 9 - - -
01/06:00am - - - - - W 17 22 9 12 - - -
01/05:30am - - - - - WNW 11 17 6 9 - - -
01/05:00am - - - - - W 17 22 9 12 - - -
01/04:30am - - - - - W 17 22 9 12 - - -
01/04:00am - - - - - WSW 15 24 8 13 - - -
01/03:30am - - - - - WSW 13 19 7 10 - - -
01/03:00am - - - - - W 15 20 8 11 - - -
01/02:30am - - - - - WSW 19 26 10 14 - - -
01/02:00am - - - - - WSW 20 26 11 14 - - -
01/01:30am - - - - - WSW 22 32 12 17 - - -
01/01:00am - - - - - W 9 13 5 7 - - -
01/12:30am - - - - - W 15 20 8 11 - - -
01/12:00am - - - - - WSW 17 22 9 12 - - -
 
Date/Time
WST
Temp
°C
App
Temp
°C
Dew
Point
°C
Rel
Hum
%
Delta-T
°C
Wind Press
QNH
hPa
Press
MSL
hPa
Rain since
9am
mm
Dir  Spd
km/h
Gust
km/h
Spd
kts
Gust
kts
30/11:30pm - - - - - W 13 22 7 12 - - -
30/11:00pm - - - - - W 11 15 6 8 - - -
30/10:30pm - - - - - W 11 17 6 9 - - -
30/10:00pm - - - - - WSW 13 19 7 10 - - -
30/09:30pm - - - - - WSW 15 19 8 10 - - -
30/09:00pm - - - - - W 11 15 6 8 - - -
30/08:30pm - - - - - W 11 17 6 9 - - -
30/08:00pm - - - - - W 11 15 6 8 - - -
30/07:30pm - - - - - WSW 9 15 5 8 - - -
30/07:00pm - - - - - WSW 11 13 6 7 - - -
30/06:30pm - - - - - W 11 15 6 8 - - -
30/06:00pm - - - - - W 13 17 7 9 - - -
30/05:30pm - - - - - WSW 13 19 7 10 - - -
30/05:00pm - - - - - W 11 17 6 9 - - -
30/04:30pm - - - - - WSW 19 22 10 12 - - -
30/04:00pm - - - - - WSW 17 22 9 12 - - -
30/03:30pm - - - - - W 17 20 9 11 - - -
30/03:00pm - - - - - W 17 22 9 12 - - -
30/02:30pm - - - - - WNW 17 22 9 12 - - -
30/02:00pm - - - - - WNW 15 22 8 12 - - -
30/01:30pm - - - - - NW 15 22 8 12 - - -
30/01:00pm - - - - - NW 15 22 8 12 - - -
30/12:30pm - - - - - NW 15 20 8 11 - - -
30/12:00pm - - - - - WNW 13 20 7 11 - - -
30/11:30am - - - - - W 13 20 7 11 - - -
30/11:00am - - - - - WNW 15 20 8 11 - - -
30/10:30am - - - - - W 13 19 7 10 - - -
30/10:00am - - - - - NW 11 17 6 9 - - -
30/09:30am - - - - - NW 11 15 6 8 - - -
30/09:00am - - - - - NNW 9 15 5 8 - - -
30/08:30am - - - - - NE 9 11 5 6 - - -
30/08:00am - - - - - NNE 6 9 3 5 - - -
30/07:30am - - - - - NNE 4 6 2 3 - - -
30/07:00am - - - - - NNW 6 7 3 4 - - -
30/06:30am - - - - - NNW 2 6 1 3 - - -
30/06:00am - - - - - NNW 2 4 1 2 - - -
30/05:30am - - - - - CALM 0 2 0 1 - - -
30/05:00am - - - - - S 2 4 1 2 - - -
30/04:30am - - - - - S 7 9 4 5 - - -
30/04:00am - - - - - S 13 17 7 9 - - -
30/03:30am - - - - - SSW 13 17 7 9 - - -
30/03:00am - - - - - SW 7 11 4 6 - - -
30/02:30am - - - - - SSW 11 15 6 8 - - -
30/02:00am - - - - - SW 20 28 11 15 - - -
30/01:30am - - - - - WSW 9 13 5 7 - - -
30/01:00am - - - - - SW 11 17 6 9 - - -
30/12:30am - - - - - WSW 13 15 7 8 - - -
30/12:00am - - - - - WSW 7 13 4 7 - - -
 
Date/Time
WST
Temp
°C
App
Temp
°C
Dew
Point
°C
Rel
Hum
%
Delta-T
°C
Wind Press
QNH
hPa
Press
MSL
hPa
Rain since
9am
mm
Dir  Spd
km/h
Gust
km/h
Spd
kts
Gust
kts
29/11:30pm - - - - - WNW 4 6 2 3 - - -
29/11:00pm - - - - - WNW 4 6 2 3 - - -
29/10:30pm - - - - - SW 7 9 4 5 - - -
29/10:00pm - - - - - SW 17 20 9 11 - - -
29/09:30pm - - - - - SW 19 26 10 14 - - -
29/09:00pm - - - - - SW 15 19 8 10 - - -
29/08:30pm - - - - - WSW 30 37 16 20 - - -
29/08:26pm - - - - - WSW 22 37 12 20 - - -
29/08:00pm - - - - - WSW 11 13 6 7 - - -
29/07:30pm - - - - - WSW 15 24 8 13 - - -
29/07:00pm - - - - - W 15 19 8 10 - - -
29/06:30pm - - - - - W 13 19 7 10 - - -
29/06:00pm - - - - - W 20 26 11 14 - - -
29/05:30pm - - - - - W 17 26 9 14 - - -
29/05:00pm - - - - - W 17 22 9 12 - - -
29/04:30pm - - - - - W 20 28 11 15 - - -
29/04:00pm - - - - - W 24 32 13 17 - - -
29/03:30pm - - - - - W 22 32 12 17 - - -
29/03:00pm - - - - - W 17 24 9 13 - - -
29/02:30pm - - - - - W 24 39 13 21 - - -
29/02:00pm - - - - - W 22 33 12 18 - - -
29/01:30pm - - - - - W 20 33 11 18 - - -
29/01:00pm - - - - - WNW 19 33 10 18 - - -
29/12:30pm - - - - - WNW 19 30 10 16 - - -
29/12:00pm - - - - - WNW 17 28 9 15 - - -
29/11:30am - - - - - WNW 17 26 9 14 - - -
29/11:00am - - - - - WNW 19 32 10 17 - - -
29/10:30am - - - - - NW 15 22 8 12 - - -
29/10:00am - - - - - NW 17 24 9 13 - - -
29/09:30am - - - - - WSW 19 22 10 12 - - -
29/09:00am - - - - - ENE 11 15 6 8 - - -
29/08:30am - - - - - NE 13 15 7 8 - - -
29/08:00am - - - - - NE 11 13 6 7 - - -
29/07:30am - - - - - NNE 9 13 5 7 - - -
29/07:00am - - - - - ENE 6 11 3 6 - - -
29/06:30am - - - - - NE 7 11 4 6 - - -
29/06:00am - - - - - NE 7 11 4 6 - - -
29/05:30am - - - - - NE 9 11 5 6 - - -
29/05:00am - - - - - NE 7 11 4 6 - - -
29/04:30am - - - - - NE 7 9 4 5 - - -
29/04:00am - - - - - NE 9 11 5 6 - - -
29/03:30am - - - - - NE 11 13 6 7 - - -
29/03:00am - - - - - NE 11 13 6 7 - - -
29/02:30am - - - - - ENE 9 11 5 6 - - -
29/02:00am - - - - - ENE 9 11 5 6 - - -
29/01:30am - - - - - ENE 7 9 4 5 - - -
29/01:00am - - - - - ENE 7 9 4 5 - - -
29/12:30am - - - - - W 4 4 2 2 - - -
29/12:00am - - - - - W 6 7 3 4 - - -
 
Date/Time
WST
Temp
°C
App
Temp
°C
Dew
Point
°C
Rel
Hum
%
Delta-T
°C
Wind Press
QNH
hPa
Press
MSL
hPa
Rain since
9am
mm
Dir  Spd
km/h
Gust
km/h
Spd
kts
Gust
kts
28/11:30pm - - - - - W 6 7 3 4 - - -
28/11:00pm - - - - - W 6 7 3 4 - - -
28/10:30pm - - - - - W 7 11 4 6 - - -
28/10:00pm - - - - - WSW 9 13 5 7 - - -
28/09:30pm - - - - - W 6 9 3 5 - - -
28/09:00pm - - - - - W 6 9 3 5 - - -
28/08:30pm - - - - - W 6 6 3 3 - - -
28/08:00pm - - - - - WSW 7 11 4 6 - - -
28/07:30pm - - - - - SW 13 15 7 8 - - -
28/07:00pm - - - - - SW 15 19 8 10 - - -
28/06:30pm - - - - - SW 17 20 9 11 - - -
28/06:00pm - - - - - SW 20 24 11 13 - - -
28/05:30pm - - - - - WSW 20 26 11 14 - - -
28/05:00pm - - - - - SW 22 28 12 15 - - -
28/04:30pm - - - - - SW 22 28 12 15 - - -
28/04:00pm - - - - - SW 24 32 13 17 - - -
28/03:30pm - - - - - SW 26 32 14 17 - - -
28/03:00pm - - - - - SW 26 35 14 19 - - -
28/02:30pm - - - - - SW 26 30 14 16 - - -
28/02:00pm - - - - - WSW 19 24 10 13 - - -
28/01:30pm - - - - - WSW 20 33 11 18 - - -
28/01:20pm - - - - - WSW 24 41 13 22 - - -
28/01:00pm - - - - - WSW 7 15 4 8 - - -
28/12:30pm - - - - - SW 17 22 9 12 - - -
28/12:00pm - - - - - SW 19 26 10 14 - - -
28/11:30am - - - - - WSW 11 22 6 12 - - -
28/11:00am - - - - - WSW 11 22 6 12 - - -
28/10:30am - - - - - NNE 7 9 4 5 - - -
28/10:00am - - - - - NNE 9 13 5 7 - - -
28/09:30am - - - - - NNE 9 11 5 6 - - -
28/09:00am - - - - - NE 11 15 6 8 - - -
28/08:30am - - - - - NNE 13 17 7 9 - - -
28/08:00am - - - - - NE 15 19 8 10 - - -
28/07:30am - - - - - NNE 11 15 6 8 - - -

Latest Capital City Observations: Canberra | Sydney | Melbourne | Brisbane | Adelaide | Perth | Hobart | Darwin

Other formats

Comma delimited format used in spreadsheet applications
http://www.bom.gov.au/fwo/IDW60901/IDW60901.95620.axf

JavaScript Object Notation format (JSON) in row-major order
http://www.bom.gov.au/fwo/IDW60901/IDW60901.95620.json

Data quality

Most of these data are generated automatically and are frequently updated. Quality checks on data are not normally performed. It is possible for incorrect values to appear. Refer to information at About Latest Weather Observations and please check the disclaimer before using these data.